createdAt,value
2023-01-18T00:01:07.174Z,71.83
2023-01-18T00:03:34.027Z,70.71
2023-01-18T00:06:01.366Z,68.80
2023-01-18T00:08:28.273Z,69.10
2023-01-18T00:10:54.867Z,66.21
2023-01-18T00:13:24.797Z,66.90
2023-01-18T00:15:51.714Z,69.43
2023-01-18T00:18:18.506Z,67.43
2023-01-18T00:20:52.451Z,66.32
2023-01-18T00:23:19.017Z,66.25
2023-01-18T00:25:45.860Z,66.67
2023-01-18T00:28:13.182Z,66.44
2023-01-18T00:30:40.720Z,67.55
2023-01-18T00:33:07.653Z,67.85
2023-01-18T00:35:35.017Z,70.84
2023-01-18T00:38:03.856Z,71.26
2023-01-18T00:40:30.828Z,70.39
2023-01-18T00:42:58.124Z,71.24
2023-01-18T00:45:32.400Z,71.60
2023-01-18T00:48:05.972Z,71.00
2023-01-18T00:50:37.255Z,68.58
2023-01-18T00:53:04.179Z,69.43
2023-01-18T00:55:37.811Z,68.05
2023-01-18T00:58:04.676Z,68.44
2023-01-18T01:00:31.539Z,68.91
2023-01-18T01:02:58.257Z,68.82
2023-01-18T01:05:25.457Z,71.41
2023-01-18T01:07:56.523Z,70.98
2023-01-18T01:10:25.666Z,69.94
2023-01-18T01:12:52.309Z,66.65
2023-01-18T01:15:19.886Z,65.92
2023-01-18T01:17:47.152Z,69.58
2023-01-18T01:20:16.915Z,71.06
2023-01-18T01:22:43.780Z,70.01
2023-01-18T01:25:10.718Z,69.78
2023-01-18T01:27:37.273Z,69.42
2023-01-18T01:30:04.360Z,67.27
2023-01-18T01:32:30.966Z,66.14
2023-01-18T01:34:57.840Z,67.46
2023-01-18T01:37:25.261Z,67.44
2023-01-18T01:39:53.829Z,65.57
2023-01-18T01:42:29.393Z,63.31
2023-01-18T01:45:03.462Z,66.35
2023-01-18T01:47:30.366Z,65.84
2023-01-18T01:49:57.275Z,64.05
2023-01-18T01:52:24.467Z,64.87
2023-01-18T01:54:51.330Z,66.85
2023-01-18T01:57:19.830Z,66.36
2023-01-18T01:59:47.170Z,65.16
2023-01-18T02:02:14.161Z,64.97
2023-01-18T02:04:41.562Z,65.44
2023-01-18T02:07:08.904Z,63.59
2023-01-18T02:09:35.823Z,63.01
2023-01-18T02:12:04.540Z,60.65
2023-01-18T02:14:31.797Z,62.02
2023-01-18T02:17:00.777Z,62.51
2023-01-18T02:19:27.643Z,62.68
2023-01-18T02:21:54.354Z,63.12
2023-01-18T02:24:21.266Z,62.35
2023-01-18T02:26:51.553Z,63.37
2023-01-18T02:29:18.122Z,62.57
2023-01-18T02:31:45.310Z,63.03
2023-01-18T02:34:19.308Z,63.08
2023-01-18T02:36:46.129Z,62.88
2023-01-18T02:39:12.581Z,61.45
2023-01-18T02:41:39.097Z,63.19
2023-01-18T02:44:06.479Z,65.51
2023-01-18T02:46:34.083Z,65.12
2023-01-18T02:49:08.184Z,65.79
2023-01-18T02:51:35.508Z,65.82
2023-01-18T02:54:02.619Z,66.15
2023-01-18T02:56:32.271Z,65.81
2023-01-18T02:58:59.362Z,66.85
2023-01-18T03:01:26.968Z,64.67
2023-01-18T03:03:56.854Z,64.75
2023-01-18T03:06:24.175Z,63.04
2023-01-18T03:08:53.052Z,61.07
2023-01-18T03:11:19.571Z,60.91
2023-01-18T03:13:46.115Z,62.66
2023-01-18T03:16:15.239Z,64.29
2023-01-18T03:18:41.922Z,66.07
2023-01-18T03:21:09.762Z,67.43
2023-01-18T03:23:36.371Z,68.10
2023-01-18T03:26:04.723Z,65.96
2023-01-18T03:28:31.799Z,66.99
2023-01-18T03:30:58.679Z,66.63
2023-01-18T03:33:25.585Z,67.43
2023-01-18T03:35:59.723Z,67.04
2023-01-18T03:38:26.737Z,66.92
2023-01-18T03:40:53.416Z,65.80
2023-01-18T03:43:20.996Z,66.00
2023-01-18T03:45:47.830Z,68.13
2023-01-18T03:48:14.705Z,65.83
2023-01-18T03:53:10.273Z,66.33
2023-01-18T03:55:37.080Z,67.52
2023-01-18T03:58:03.936Z,66.41
2023-01-18T04:00:32.936Z,68.80
2023-01-18T04:03:00.102Z,69.08
2023-01-18T04:05:27.396Z,68.50
2023-01-18T04:07:55.639Z,67.43
2023-01-18T04:10:24.747Z,69.98
2023-01-18T04:12:51.674Z,70.22
2023-01-18T04:15:25.633Z,69.03
2023-01-18T04:17:52.522Z,70.53
2023-01-18T04:20:19.333Z,70.41
2023-01-18T04:22:46.881Z,70.30
2023-01-18T04:25:13.779Z,71.97
2023-01-18T04:27:41.143Z,71.98
2023-01-18T04:30:08.014Z,70.49
2023-01-18T04:32:34.835Z,69.35
2023-01-18T04:35:04.101Z,67.78
2023-01-18T04:37:33.263Z,69.10
2023-01-18T04:40:00.533Z,69.75
2023-01-18T04:42:27.542Z,69.89
2023-01-18T04:45:01.741Z,69.31
2023-01-18T04:47:28.372Z,69.30
2023-01-18T04:49:57.562Z,69.59
2023-01-18T04:52:24.920Z,67.99
2023-01-18T04:54:52.316Z,68.21
2023-01-18T04:57:20.972Z,68.97
2023-01-18T04:59:47.784Z,69.16
2023-01-18T05:02:21.552Z,71.55
2023-01-18T05:04:48.584Z,71.10
2023-01-18T05:07:15.905Z,72.53
2023-01-18T05:09:42.765Z,73.59
2023-01-18T05:31:05.198Z,74.77
2023-01-18T05:33:33.723Z,73.82
2023-01-18T05:36:00.225Z,69.93
2023-01-18T05:38:27.272Z,68.12
2023-01-18T05:40:55.618Z,66.84
2023-01-18T05:49:52.736Z,65.46
2023-01-18T05:52:26.660Z,64.68
2023-01-18T05:54:53.247Z,64.09
2023-01-18T05:57:27.159Z,63.47
2023-01-18T05:59:54.601Z,62.10
2023-01-18T06:02:21.199Z,60.75
2023-01-18T06:04:48.510Z,60.12
2023-01-18T06:07:15.071Z,60.54
2023-01-18T06:09:43.268Z,60.97
2023-01-18T06:12:10.654Z,63.22
2023-01-18T06:14:38.806Z,65.09
2023-01-18T06:17:05.378Z,66.20
2023-01-18T06:19:41.340Z,66.65
2023-01-18T06:22:12.893Z,67.42
2023-01-18T06:24:39.749Z,67.34
2023-01-18T06:27:07.220Z,67.09
2023-01-18T06:29:41.401Z,65.90
2023-01-18T06:32:08.292Z,68.52
2023-01-18T06:34:35.112Z,69.71
2023-01-18T06:37:04.175Z,73.41
2023-01-18T06:39:30.822Z,76.04
2023-01-18T06:41:58.559Z,78.89
2023-01-18T06:44:25.374Z,80.00
2023-01-18T06:46:53.669Z,77.88
2023-01-18T06:49:22.834Z,78.65
2023-01-18T06:51:49.531Z,79.54
2023-01-18T06:54:16.421Z,79.67
2023-01-18T06:56:43.313Z,79.50
2023-01-18T06:59:10.729Z,80.52
2023-01-18T07:01:37.693Z,82.16
2023-01-18T07:04:04.886Z,81.58
2023-01-18T07:06:32.189Z,80.17
2023-01-18T07:08:58.878Z,77.95
2023-01-18T07:11:27.344Z,77.83
2023-01-18T07:13:57.049Z,78.92
2023-01-18T07:16:32.459Z,77.09
2023-01-18T07:18:58.986Z,75.09
2023-01-18T07:24:08.972Z,76.57
2023-01-18T07:26:36.358Z,75.74
2023-01-18T07:29:10.313Z,77.67
2023-01-18T07:31:38.255Z,75.35
2023-01-18T07:34:05.202Z,74.37
2023-01-18T07:36:31.740Z,76.36
2023-01-18T07:38:59.887Z,76.59
2023-01-18T07:41:30.139Z,78.09
2023-01-18T07:43:59.043Z,78.73
2023-01-18T07:46:28.201Z,76.81
2023-01-18T07:48:56.489Z,73.97
2023-01-18T07:51:24.086Z,72.19
2023-01-18T07:53:51.601Z,69.38
2023-01-18T07:56:20.168Z,70.78
2023-01-18T07:58:46.776Z,72.59
2023-01-18T08:01:13.879Z,72.00
2023-01-18T08:03:41.175Z,70.02
2023-01-18T08:06:07.760Z,68.86
2023-01-18T08:08:34.968Z,67.47
2023-01-18T08:11:03.063Z,68.54
2023-01-18T08:13:33.142Z,66.87
2023-01-18T08:16:02.277Z,65.63
2023-01-18T08:18:29.633Z,65.56
2023-01-18T08:21:09.483Z,67.52
2023-01-18T08:26:24.237Z,68.92
2023-01-18T08:28:52.932Z,68.32
2023-01-18T08:31:19.491Z,69.79
2023-01-18T08:33:46.661Z,70.06
2023-01-18T08:36:14.603Z,71.84
2023-01-18T08:38:41.079Z,75.32
2023-01-18T08:41:11.960Z,63.85
2023-01-18T08:43:41.777Z,66.04
2023-01-18T08:46:11.181Z,66.95
2023-01-18T08:48:37.795Z,69.12
2023-01-18T08:51:05.430Z,68.30
2023-01-18T08:53:33.730Z,67.69
2023-01-18T08:56:04.081Z,68.38
2023-01-18T08:58:30.826Z,71.40
2023-01-18T09:00:59.550Z,72.67
2023-01-18T09:03:28.897Z,72.36
2023-01-18T09:05:55.546Z,73.17
2023-01-18T09:08:22.899Z,71.91
2023-01-18T09:13:32.695Z,71.98
2023-01-18T09:16:00.155Z,72.63
2023-01-18T09:18:28.861Z,71.78
2023-01-18T09:20:55.906Z,69.40
2023-01-18T09:23:22.331Z,73.25
2023-01-18T09:25:49.483Z,70.53
2023-01-18T09:28:23.330Z,70.75
2023-01-18T09:30:50.475Z,66.89
2023-01-18T09:33:31.247Z,65.40
2023-01-18T09:36:03.892Z,64.21
2023-01-18T09:38:30.814Z,64.12
2023-01-18T09:40:57.614Z,63.64
2023-01-18T09:43:31.905Z,62.48
2023-01-18T09:46:00.672Z,62.68
2023-01-18T09:48:27.711Z,64.49
2023-01-18T09:50:55.370Z,65.56
2023-01-18T09:53:22.990Z,64.70
2023-01-18T09:55:49.610Z,65.33
2023-01-18T09:58:17.723Z,68.61
2023-01-18T10:00:47.375Z,70.31
2023-01-18T10:03:14.954Z,73.19
2023-01-18T10:05:42.325Z,74.26
2023-01-18T10:08:12.092Z,75.18
2023-01-18T10:10:39.595Z,74.27
2023-01-18T10:13:07.008Z,73.68
2023-01-18T10:15:34.956Z,71.84
2023-01-18T10:18:03.576Z,68.32
2023-01-18T10:20:30.751Z,68.55
2023-01-18T10:23:04.828Z,74.10
2023-01-18T10:25:31.804Z,75.95
2023-01-18T10:28:00.630Z,74.38
2023-01-18T10:30:30.235Z,70.94
2023-01-18T10:32:58.099Z,68.72
2023-01-18T10:35:25.699Z,68.38
2023-01-18T10:37:52.616Z,69.73
2023-01-18T10:40:26.515Z,70.28
2023-01-18T10:46:09.855Z,72.24
2023-01-18T10:48:36.509Z,73.47
2023-01-18T10:51:06.244Z,74.28
2023-01-18T10:53:35.719Z,74.60
2023-01-18T10:56:09.818Z,74.84
2023-01-18T10:58:36.819Z,75.35
2023-01-18T11:01:03.852Z,77.49
2023-01-18T11:03:31.495Z,76.61
2023-01-18T11:05:59.004Z,76.01
2023-01-18T11:08:27.534Z,75.15
2023-01-18T11:10:54.218Z,73.07
2023-01-18T11:13:21.921Z,71.72
2023-01-18T11:15:56.067Z,74.95
2023-01-18T11:18:22.779Z,73.96
2023-01-18T11:20:50.259Z,73.01
2023-01-18T11:23:23.976Z,71.99
2023-01-18T11:28:41.517Z,69.49
2023-01-18T11:31:09.079Z,67.70
2023-01-18T11:33:35.985Z,66.33
2023-01-18T11:36:02.775Z,69.54
2023-01-18T11:38:29.657Z,69.88
2023-01-18T11:40:56.586Z,71.60
2023-01-18T11:43:24.262Z,72.67
2023-01-18T11:45:50.953Z,68.33
2023-01-18T11:48:17.937Z,68.63
2023-01-18T11:50:44.837Z,66.08
2023-01-18T11:53:12.424Z,71.32
2023-01-18T11:55:39.867Z,67.86
2023-01-18T11:58:07.402Z,68.77
2023-01-18T12:00:34.708Z,68.39
2023-01-18T12:03:02.025Z,65.69
2023-01-18T12:05:30.990Z,66.37
2023-01-18T12:07:58.440Z,65.86
2023-01-18T12:10:25.282Z,66.67
2023-01-18T12:12:52.038Z,64.31
2023-01-18T12:15:26.243Z,65.40
2023-01-18T12:18:07.781Z,65.38
2023-01-18T12:20:39.673Z,65.94
2023-01-18T12:23:08.683Z,66.56
2023-01-18T12:25:35.987Z,66.34
2023-01-18T12:28:02.715Z,65.15
2023-01-18T12:30:29.842Z,66.96
2023-01-18T12:32:59.246Z,63.68
2023-01-18T12:35:27.029Z,65.73
2023-01-18T12:37:54.583Z,65.53
2023-01-18T12:40:23.543Z,64.86
2023-01-18T12:42:57.650Z,63.44
2023-01-18T12:45:24.627Z,65.02
2023-01-18T12:47:51.559Z,62.18
2023-01-18T12:50:18.256Z,61.19
2023-01-18T12:52:50.433Z,62.47
2023-01-18T12:55:17.181Z,62.76
2023-01-18T12:57:46.451Z,61.59
2023-01-18T13:00:13.861Z,63.41
2023-01-18T13:02:41.273Z,64.46
2023-01-18T13:05:08.121Z,65.83
2023-01-18T13:07:35.144Z,65.57
2023-01-18T13:10:01.719Z,63.84
2023-01-18T13:12:30.824Z,60.87
2023-01-18T13:14:59.174Z,60.21
2023-01-18T13:17:26.053Z,57.45
2023-01-18T13:19:52.617Z,58.97
2023-01-18T13:22:26.841Z,59.78
2023-01-18T13:24:56.624Z,60.34
2023-01-18T13:27:24.121Z,59.53
2023-01-18T13:29:54.477Z,60.14
2023-01-18T13:32:21.228Z,59.23
2023-01-18T13:34:49.440Z,58.90
2023-01-18T13:37:19.251Z,61.33
2023-01-18T13:39:48.934Z,60.56
2023-01-18T13:44:45.438Z,56.32
2023-01-18T13:47:12.656Z,55.64
2023-01-18T13:49:41.770Z,55.15
2023-01-18T13:52:11.852Z,53.46
2023-01-18T13:54:38.710Z,53.45
2023-01-18T13:57:06.106Z,53.30
2023-01-18T13:59:33.095Z,53.82
2023-01-18T14:01:59.773Z,54.66
2023-01-18T14:04:26.703Z,54.65
2023-01-18T14:06:53.585Z,54.57
2023-01-18T14:09:27.518Z,53.80
2023-01-18T14:12:01.615Z,53.71
2023-01-18T14:14:28.346Z,52.78
2023-01-18T14:16:56.699Z,52.47
2023-01-18T14:19:23.521Z,52.33
2023-01-18T14:21:50.896Z,51.94
2023-01-18T14:24:17.458Z,51.96
2023-01-18T14:26:44.123Z,49.44
2023-01-18T14:29:11.042Z,49.83
2023-01-18T14:31:38.824Z,50.26
2023-01-18T14:34:05.690Z,51.78
2023-01-18T14:36:32.436Z,52.46
2023-01-18T14:38:59.340Z,52.09
2023-01-18T14:41:27.881Z,50.22
2023-01-18T14:46:42.617Z,49.93
2023-01-18T14:49:10.356Z,51.37
2023-01-18T14:51:37.080Z,51.09
2023-01-18T14:54:04.082Z,50.76
2023-01-18T14:56:30.755Z,53.19
2023-01-18T15:02:14.177Z,53.58
2023-01-18T15:04:41.524Z,53.69
2023-01-18T15:07:08.751Z,53.00
2023-01-18T15:09:35.471Z,52.28
2023-01-18T15:12:08.969Z,51.42
2023-01-18T15:14:35.621Z,53.04
2023-01-18T15:17:05.167Z,52.14
2023-01-18T15:19:32.180Z,53.29
2023-01-18T15:21:59.086Z,52.29
2023-01-18T15:24:25.966Z,52.49
2023-01-18T15:26:52.702Z,54.29
2023-01-18T15:29:21.265Z,54.50
2023-01-18T15:31:47.811Z,55.50
2023-01-18T15:34:17.681Z,55.37
2023-01-18T15:36:44.523Z,53.94
2023-01-18T15:39:11.424Z,54.02
2023-01-18T15:41:38.346Z,53.60
2023-01-18T15:47:20.398Z,57.26
2023-01-18T15:49:47.379Z,54.22
2023-01-18T15:52:14.496Z,54.50
2023-01-18T15:57:56.951Z,53.97
2023-01-18T16:00:24.300Z,55.36
2023-01-18T16:02:50.933Z,55.06
2023-01-18T16:05:19.789Z,55.70
2023-01-18T16:07:46.488Z,57.13
2023-01-18T16:10:12.993Z,56.56
2023-01-18T16:12:39.743Z,57.32
2023-01-18T16:15:06.748Z,56.02
2023-01-18T16:17:36.974Z,57.31
2023-01-18T16:20:08.152Z,55.31
2023-01-18T16:22:37.335Z,57.30
2023-01-18T16:25:06.835Z,57.96
2023-01-18T16:27:33.655Z,57.21
2023-01-18T16:30:04.924Z,56.55
2023-01-18T16:32:37.549Z,57.28
2023-01-18T16:35:15.902Z,56.24
2023-01-18T16:37:45.445Z,55.30
2023-01-18T16:40:16.210Z,54.51
2023-01-18T16:42:43.181Z,54.04
2023-01-18T16:45:13.931Z,55.88
2023-01-18T16:47:44.003Z,56.15
2023-01-18T16:50:13.199Z,56.11
2023-01-18T16:52:40.014Z,56.02
2023-01-18T16:55:08.265Z,54.15
2023-01-18T16:57:38.204Z,54.84
2023-01-18T17:00:09.597Z,55.11
2023-01-18T17:02:39.927Z,55.75
2023-01-18T17:05:27.088Z,57.14
2023-01-18T17:07:57.009Z,56.42
2023-01-18T17:10:24.310Z,57.00
2023-01-18T17:12:51.090Z,55.48
2023-01-18T17:15:23.665Z,55.63
2023-01-18T17:17:53.962Z,55.84
2023-01-18T17:20:24.271Z,55.65
2023-01-18T17:22:50.840Z,56.30
2023-01-18T17:25:17.703Z,54.28
2023-01-18T17:27:45.723Z,54.74
2023-01-18T17:30:12.717Z,54.78
2023-01-18T17:32:45.636Z,55.14
2023-01-18T17:35:13.658Z,55.23
2023-01-18T17:37:40.445Z,55.92
2023-01-18T17:40:23.601Z,53.86
2023-01-18T17:43:01.140Z,52.46
2023-01-18T17:45:33.192Z,52.88
2023-01-18T17:50:56.926Z,55.68
2023-01-18T17:53:23.761Z,56.14
2023-01-18T17:59:08.401Z,57.29
2023-01-18T18:01:35.201Z,55.42
2023-01-18T18:04:09.675Z,55.35
2023-01-18T18:06:46.053Z,52.79
2023-01-18T18:09:16.345Z,52.36
2023-01-18T18:11:43.145Z,53.39
2023-01-18T18:14:15.306Z,52.91
2023-01-18T18:19:57.876Z,55.93
2023-01-18T18:22:27.415Z,57.22
2023-01-18T18:24:54.725Z,58.06
2023-01-18T18:27:44.524Z,58.83
2023-01-18T18:30:12.194Z,59.60
2023-01-18T18:32:41.901Z,60.20
2023-01-18T18:35:23.879Z,60.57
2023-01-18T18:37:51.855Z,58.46
2023-01-18T18:40:18.977Z,58.32
2023-01-18T18:43:00.826Z,58.67
2023-01-18T18:45:31.240Z,58.85
2023-01-18T18:48:00.375Z,60.29
2023-01-18T18:50:28.226Z,59.07
2023-01-18T18:52:55.184Z,59.72
2023-01-18T18:58:39.312Z,60.04
2023-01-18T19:01:07.210Z,60.60
2023-01-18T19:03:34.156Z,59.91
2023-01-18T19:06:00.888Z,59.80
2023-01-18T19:08:27.531Z,59.82
2023-01-18T19:10:55.898Z,60.25
2023-01-18T19:13:30.319Z,60.87
2023-01-18T19:15:57.485Z,61.63
2023-01-18T19:18:24.455Z,60.38
2023-01-18T19:20:51.656Z,60.98
2023-01-18T19:23:25.794Z,61.65
2023-01-18T19:25:53.286Z,61.37
2023-01-18T19:28:35.707Z,61.69
2023-01-18T19:31:02.558Z,61.12
2023-01-18T19:36:27.493Z,58.98
2023-01-18T19:38:59.615Z,57.67
2023-01-18T19:41:30.103Z,57.67
2023-01-18T19:47:06.970Z,58.62
2023-01-18T19:49:33.837Z,59.35
2023-01-18T19:52:00.801Z,58.77
2023-01-18T19:54:27.344Z,60.61
2023-01-18T19:56:54.365Z,58.37
2023-01-18T20:01:53.927Z,59.88
2023-01-18T20:04:20.800Z,60.56
2023-01-18T20:06:48.729Z,62.36
2023-01-18T20:09:21.199Z,60.69
2023-01-18T20:11:50.611Z,61.78
2023-01-18T20:17:08.872Z,61.99
2023-01-18T20:19:38.069Z,62.84
2023-01-18T20:22:05.312Z,62.59
2023-01-18T20:24:43.331Z,62.54
2023-01-18T20:27:16.247Z,61.85
2023-01-18T20:29:43.726Z,62.37
2023-01-18T20:32:16.134Z,59.71
2023-01-18T20:34:45.898Z,59.95
2023-01-18T20:37:14.871Z,60.67
2023-01-18T20:39:41.454Z,59.82
2023-01-18T20:42:15.992Z,58.70
2023-01-18T20:44:43.143Z,59.29
2023-01-18T20:47:09.708Z,59.09
2023-01-18T20:52:39.601Z,60.14
2023-01-18T20:55:08.649Z,59.79
2023-01-18T20:57:38.651Z,60.38
2023-01-18T21:06:16.227Z,60.58
2023-01-18T21:08:42.985Z,60.54
2023-01-18T21:11:09.618Z,60.95
2023-01-18T21:13:37.058Z,61.83
2023-01-18T21:16:03.814Z,61.67
2023-01-18T21:18:32.980Z,62.71
2023-01-18T21:21:00.603Z,62.97
2023-01-18T21:23:37.270Z,62.72
2023-01-18T21:26:03.974Z,61.99
2023-01-18T21:28:32.741Z,61.78
2023-01-18T21:30:59.687Z,61.44
2023-01-18T21:33:30.267Z,59.83
2023-01-18T21:35:57.452Z,60.03
2023-01-18T21:38:24.491Z,59.57
2023-01-18T21:40:51.446Z,59.94
2023-01-18T21:43:18.301Z,59.78
2023-01-18T21:45:47.450Z,60.17
2023-01-18T21:48:14.219Z,60.65
2023-01-18T21:50:41.621Z,61.34
2023-01-18T21:53:09.933Z,60.04
2023-01-18T21:55:36.536Z,59.99
2023-01-18T21:58:03.351Z,60.43
2023-01-18T22:00:30.260Z,59.49
2023-01-18T22:02:59.365Z,58.92
2023-01-18T22:05:26.335Z,59.12
2023-01-18T22:07:52.873Z,58.15
2023-01-18T22:10:19.367Z,58.84
2023-01-18T22:12:46.311Z,57.03
2023-01-18T22:15:13.097Z,59.55
2023-01-18T22:17:40.338Z,59.31
2023-01-18T22:20:07.224Z,60.23
2023-01-18T22:22:35.423Z,60.24
2023-01-18T22:25:02.176Z,59.96
2023-01-18T22:27:29.018Z,57.54
2023-01-18T22:29:57.733Z,59.03
2023-01-18T22:32:24.420Z,59.86
2023-01-18T22:34:53.382Z,60.36
2023-01-18T22:37:20.066Z,59.40
2023-01-18T22:39:46.825Z,60.28
2023-01-18T22:42:13.652Z,60.26
2023-01-18T22:44:40.454Z,59.22
2023-01-18T22:47:07.620Z,59.36
2023-01-18T22:49:34.321Z,59.16
2023-01-18T22:52:01.177Z,59.37
2023-01-18T22:54:27.773Z,59.47
2023-01-18T22:56:55.463Z,59.52
2023-01-18T22:59:22.179Z,58.37
2023-01-18T23:01:49.020Z,58.40
2023-01-18T23:04:15.904Z,58.70
2023-01-18T23:06:42.713Z,59.46
2023-01-18T23:09:09.837Z,59.42
2023-01-18T23:11:36.556Z,59.25
2023-01-18T23:14:03.664Z,60.24
2023-01-18T23:16:30.290Z,60.07
2023-01-18T23:18:57.153Z,60.03
2023-01-18T23:21:23.977Z,60.16
2023-01-18T23:23:51.592Z,59.03
2023-01-18T23:26:18.849Z,59.46
2023-01-18T23:28:46.576Z,58.57
2023-01-18T23:31:13.518Z,58.30
2023-01-18T23:33:40.445Z,58.71
2023-01-18T23:36:06.966Z,59.11
2023-01-18T23:38:33.580Z,59.77
2023-01-18T23:41:00.851Z,59.92
2023-01-18T23:43:27.967Z,60.86
2023-01-18T23:45:54.878Z,60.82
2023-01-18T23:48:21.592Z,61.13
2023-01-18T23:50:48.374Z,61.09
2023-01-18T23:53:14.877Z,60.68
2023-01-18T23:55:42.629Z,59.72
2023-01-18T23:58:09.289Z,60.86
